Latest Coastal Weather Observations for Portland Harbour

IDS60701

Issued at 11:21 am CST Tuesday 26 May 2015 (issued every 10 minutes, with the page automatically refreshed every 10 minutes)

About coastal observations | Map of coastal stations | Coastal observations for SA | Marine services | Other Formats
Station Details ID: 090192 Name: PORTLAND NTC AWS Lat: -38.34 Lon: 141.61 Height: 0.0 m
Data from the previous 72 hours. | See also: Recent months for locations in South Australia
Date/Time
CST
Temp

°C
Wind Pressure Rain
since 9am
mm
Weather Cloud Vis
km
Sea
Height
m
Swell
Dir
 
Speed
knots
Gust
knots
hPa Trend Height
m
Period
s
Dir
26/11:00am 12.1 ENE 2 3 1026.8 - - - - - - - - -
26/10:30am 11.7 N 2 3 1027.4 - - - - - - - - -
26/10:00am 9.5 WSW 3 4 1027.5 - - - - - - - - -
26/09:30am 8.0 W 3 3 1027.7 - - - - - - - - -
26/09:00am 7.8 W 3 3 1027.8 - - - - - - - - -
26/08:30am 6.9 WSW 4 5 1027.8 - - - - - - - - -
26/08:00am 7.0 WSW 3 3 1027.9 - - - - - - - - -
26/07:30am 7.0 W 3 4 1027.9 - - - - - - - - -
26/07:00am 6.6 W 3 5 1027.7 - - - - - - - - -
26/06:30am 6.6 WSW 2 3 1027.7 - - - - - - - - -
26/06:00am 6.6 WSW 2 3 1027.5 - - - - - - - - -
26/05:30am 7.0 WNW 3 4 1027.5 - - - - - - - - -
26/05:00am 6.7 W 3 4 1027.5 - - - - - - - - -
26/04:30am 6.6 WSW 3 4 1027.5 - - - - - - - - -
26/04:00am 7.0 WSW 3 4 1027.6 - - - - - - - - -
26/03:30am 7.3 WSW 3 3 1027.6 - - - - - - - - -
26/03:00am 7.0 WSW 3 4 1027.7 - - - - - - - - -
26/02:30am 7.9 W 3 4 1028.0 - - - - - - - - -
26/02:00am 7.6 WSW 3 4 1028.2 - - - - - - - - -
26/01:30am 7.6 WSW 2 3 1028.4 - - - - - - - - -
26/01:00am 7.7 SW 3 3 1028.3 - - - - - - - - -
26/12:30am 7.8 WSW 2 3 1028.3 - - - - - - - - -
26/12:00am 8.1 SW 3 4 1028.5 - - - - - - - - -
 
Date/Time
CST
Temp

°C
Wind Pressure Rain
since 9am
mm
Weather Cloud Vis
km
Sea
Height
m
Swell
Dir
 
Speed
knots
Gust
knots
hPa Trend Height
m
Period
s
Dir
25/11:30pm 8.5 WSW 3 3 1028.8 - - - - - - - - -
25/11:00pm 8.3 SW 3 4 1028.7 - - - - - - - - -
25/10:30pm 8.9 SW 3 4 1028.5 - - - - - - - - -
25/10:00pm 8.9 SW 3 3 1028.8 - - - - - - - - -
25/09:30pm 9.3 WSW 2 3 1028.9 - - - - - - - - -
25/09:00pm 9.7 SW 3 4 1029.1 - - - - - - - - -
25/08:30pm 10.0 SW 3 4 1029.1 - - - - - - - - -
25/08:00pm 10.6 SW 3 3 1029.0 - - - - - - - - -
25/07:30pm 10.9 SW 2 3 1028.9 - - - - - - - - -
25/07:00pm 11.5 SW 2 3 1028.8 - - - - - - - - -
25/06:30pm 12.2 SW 2 2 1028.6 - - - - - - - - -
25/06:00pm 13.5 SW 1 1 1028.4 - - - - - - - - -
25/05:30pm 14.0 S 2 3 1028.2 - - - - - - - - -
25/05:00pm 14.9 S 3 4 1028.1 - - - - - - - - -
25/04:30pm 15.2 SE 4 5 1027.7 - - - - - - - - -
25/04:00pm 15.6 ESE 4 5 1027.6 - - - - - - - - -
25/03:30pm 15.3 ENE 4 5 1027.5 - - - - - - - - -
25/03:00pm 15.2 E 5 6 1027.4 - - - - - - - - -
25/02:30pm 15.3 ENE 5 6 1027.5 - - - - - - - - -
25/02:00pm 15.4 NE 5 5 1027.5 - - - - - - - - -
25/01:30pm 15.3 NE 4 5 1027.7 - - - - - - - - -
25/01:00pm 15.4 NE 5 6 1027.9 - - - - - - - - -
25/12:30pm 16.4 NNW 4 6 1028.2 - - - - - - - - -
25/12:00pm 16.0 NW 6 9 1028.7 - - - - - - - - -
25/11:30am 15.5 NW 7 10 1029.2 - - - - - - - - -
25/11:00am 14.8 NW 7 9 1029.5 - - - - - - - - -
25/10:30am 14.5 NW 6 10 1029.9 - - - - - - - - -
25/10:00am 13.6 N 6 8 1030.1 - - - - - - - - -
25/09:30am 12.9 NW 3 4 1030.0 - - - - - - - - -
25/09:00am 11.6 N 6 8 1029.9 - - - - - - - - -
25/08:30am 10.5 NW 4 7 1030.0 - - - - - - - - -
25/08:00am 9.6 NW 2 4 1030.1 - - - - - - - - -
25/07:30am 8.4 WNW 2 3 1030.1 - - - - - - - - -
25/07:00am 8.0 WNW 2 3 1029.9 - - - - - - - - -
25/06:30am 7.6 WNW 1 3 1029.7 - - - - - - - - -
25/06:00am 8.4 WSW 2 3 1029.3 - - - - - - - - -
25/05:30am 8.2 W 2 4 1029.1 - - - - - - - - -
25/05:00am 9.4 WNW 2 3 1029.1 - - - - - - - - -
25/04:30am 10.2 NW 2 5 1029.0 - - - - - - - - -
25/04:00am 10.0 WNW 1 2 1028.9 - - - - - - - - -
25/03:30am 10.7 N 6 7 1028.8 - - - - - - - - -
25/03:00am 10.4 N 3 4 1028.8 - - - - - - - - -
25/02:30am 9.7 SW 2 3 1028.6 - - - - - - - - -
25/02:00am 10.1 NW 3 4 1028.7 - - - - - - - - -
25/01:30am 10.2 NW 2 4 1028.7 - - - - - - - - -
25/01:00am 10.2 WNW 3 4 1028.7 - - - - - - - - -
25/12:30am 10.4 WNW 3 5 1028.7 - - - - - - - - -
25/12:00am 10.8 NNW 4 6 1029.0 - - - - - - - - -
 
Date/Time
CST
Temp

°C
Wind Pressure Rain
since 9am
mm
Weather Cloud Vis
km
Sea
Height
m
Swell
Dir
 
Speed
knots
Gust
knots
hPa Trend Height
m
Period
s
Dir
24/11:30pm 10.3 WNW 2 3 1029.0 - - - - - - - - -
24/11:00pm 10.8 N 6 7 1029.0 - - - - - - - - -
24/10:30pm 10.5 NNW 3 4 1029.2 - - - - - - - - -
24/10:00pm 10.3 NW 2 3 1029.6 - - - - - - - - -
24/09:30pm 10.4 WNW 2 3 1029.6 - - - - - - - - -
24/09:00pm 10.0 SSW 1 2 1029.6 - - - - - - - - -
24/08:30pm 10.3 WNW 2 3 1029.6 - - - - - - - - -
24/08:00pm 11.5 NNW 4 6 1029.4 - - - - - - - - -
24/07:30pm 11.4 NNW 6 7 1029.4 - - - - - - - - -
24/07:00pm 11.6 NNW 6 8 1029.4 - - - - - - - - -
24/06:30pm 12.5 N 8 9 1029.3 - - - - - - - - -
24/06:00pm 13.0 N 5 7 1029.2 - - - - - - - - -
24/05:30pm 12.9 N 2 3 1029.0 - - - - - - - - -
24/05:00pm 12.9 NNW 3 4 1028.8 - - - - - - - - -
24/04:30pm 13.1 NW 5 6 1028.7 - - - - - - - - -
24/04:00pm 13.3 NNW 6 8 1028.7 - - - - - - - - -
24/03:30pm 13.5 NNW 8 10 1028.4 - - - - - - - - -
24/03:00pm 13.6 ENE 4 8 1028.2 - - - - - - - - -
24/02:30pm 14.3 N 2 3 1028.2 - - - - - - - - -
24/02:00pm 13.1 N 7 9 1028.4 - - - - - - - - -
24/01:30pm 13.1 N 9 11 1028.5 - - - - - - - - -
24/01:00pm 13.1 N 7 9 1028.8 - - - - - - - - -
24/12:30pm 12.8 N 7 9 1029.0 - - - - - - - - -
24/12:00pm 12.0 NNW 7 9 1029.3 - - - - - - - - -
24/11:30am 11.4 NNW 7 8 1029.6 - - - - - - - - -
24/11:00am 10.9 NNW 7 9 1030.0 - - - - - - - - -
24/10:30am 10.9 NNW 5 8 1030.3 - - - - - - - - -
24/10:00am 9.7 NNW 5 6 1030.3 - - - - - - - - -
24/09:30am 7.3 SSW 2 4 1030.7 - - - - - - - - -
24/09:00am 6.8 W 3 5 1030.8 - - - - - - - - -
24/08:30am 5.5 WNW 3 5 1030.6 - - - - - - - - -
24/08:00am 6.9 NW 3 4 1030.4 - - - - - - - - -
24/07:30am 4.4 WSW 4 5 1030.1 - - - - - - - - -
24/07:00am 3.7 WNW 4 7 1030.1 - - - - - - - - -
24/06:30am 4.2 W 4 5 1029.9 - - - - - - - - -
24/06:00am 5.0 W 3 4 1029.6 - - - - - - - - -
24/05:30am 5.7 WNW 3 5 1029.4 - - - - - - - - -
24/05:00am 6.5 WNW 4 5 1029.2 - - - - - - - - -
24/04:30am 7.8 NNE 4 6 1029.1 - - - - - - - - -
24/04:00am 8.3 NNE 6 8 1029.1 - - - - - - - - -
24/03:30am 8.7 NNE 7 9 1029.0 - - - - - - - - -
24/03:00am 8.9 NE 7 9 1029.3 - - - - - - - - -
24/02:30am 9.4 NE 8 10 1029.6 - - - - - - - - -
24/02:00am 9.3 NE 10 11 1029.5 - - - - - - - - -
24/01:30am 9.8 ENE 10 13 1029.7 - - - - - - - - -
24/01:00am 10.2 NE 13 15 1029.8 - - - - - - - - -
24/12:30am 10.4 ENE 12 15 1030.1 - - - - - - - - -
24/12:00am 10.4 ENE 12 14 1030.2 - - - - - - - - -
 
Date/Time
CST
Temp

°C
Wind Pressure Rain
since 9am
mm
Weather Cloud Vis
km
Sea
Height
m
Swell
Dir
 
Speed
knots
Gust
knots
hPa Trend Height
m
Period
s
Dir
23/11:30pm 10.9 NE 11 14 1030.4 - - - - - - - - -
23/11:00pm 11.0 ENE 10 13 1030.3 - - - - - - - - -
23/10:30pm 10.9 ENE 11 14 1030.2 - - - - - - - - -
23/10:00pm 11.0 ENE 9 11 1030.5 - - - - - - - - -
23/09:30pm 11.1 ENE 10 13 1030.7 - - - - - - - - -
23/09:00pm 11.0 ENE 10 13 1030.8 - - - - - - - - -
23/08:30pm 11.2 ENE 12 15 1031.0 - - - - - - - - -
23/08:00pm 11.1 ENE 10 13 1031.3 - - - - - - - - -
23/07:30pm 11.1 ENE 9 13 1031.5 - - - - - - - - -
23/07:00pm 11.6 ENE 9 11 1031.4 - - - - - - - - -
23/06:30pm 11.7 ENE 10 13 1031.2 - - - - - - - - -
23/06:00pm 11.4 E 10 13 1031.0 - - - - - - - - -
23/05:30pm 11.6 E 9 12 1031.1 - - - - - - - - -
23/05:00pm 11.5 E 10 13 1030.9 - - - - - - - - -
23/04:30pm 11.5 E 8 11 1031.2 - - - - - - - - -
23/04:00pm 12.0 E 10 13 1031.0 - - - - - - - - -
23/03:30pm 12.2 E 10 13 1031.0 - - - - - - - - -
23/03:00pm 12.0 E 9 13 1030.9 - - - - - - - - -
23/02:30pm 11.7 ENE 9 13 1031.2 - - - - - - - - -
23/02:00pm 11.6 E 8 13 1031.3 - - - - - - - - -
23/01:30pm 11.6 E 10 14 1031.4 - - - - - - - - -
23/01:00pm 11.7 E 9 12 1031.5 - - - - - - - - -
23/12:30pm 11.4 E 10 14 1031.8 - - - - - - - - -
23/12:00pm 11.5 E 10 14 1032.0 - - - - - - - - -
23/11:30am 11.6 ESE 9 12 1032.7 - - - - - - - - -
23/11:00am 12.1 ESE 9 13 1033.1 - - - - - - - - -

Other Formats:

Comma delimited format used in spreadsheet applications
http://www.bom.gov.au/fwo/IDS60701/IDS60701.95826.axf

JavaScript Object Notation format (JSON) in row-major order
http://www.bom.gov.au/fwo/IDS60701/IDS60701.95826.json